sensor_id;sensor_type;location;lat;lon;timestamp;pressure;altitude;pressure_sealevel;temperature;humidity
43818;BME280;29868;47.360;18.984;2022-10-31T00:01:16;100996.00;;;13.07;100.00
43818;BME280;29868;47.360;18.984;2022-10-31T00:03:42;101002.97;;;13.08;100.00
43818;BME280;29868;47.360;18.984;2022-10-31T00:06:08;100993.16;;;12.95;100.00
43818;BME280;29868;47.360;18.984;2022-10-31T00:08:33;101004.69;;;13.07;100.00
43818;BME280;29868;47.360;18.984;2022-10-31T00:10:59;100992.41;;;13.02;100.00
43818;BME280;29868;47.360;18.984;2022-10-31T00:13:24;100984.44;;;12.91;100.00
43818;BME280;29868;47.360;18.984;2022-10-31T00:15:50;100999.34;;;13.00;100.00
43818;BME280;29868;47.360;18.984;2022-10-31T00:18:15;100994.94;;;12.96;100.00
43818;BME280;29868;47.360;18.984;2022-10-31T00:20:40;100989.63;;;12.88;100.00
43818;BME280;29868;47.360;18.984;2022-10-31T00:23:06;100989.69;;;12.93;100.00
43818;BME280;29868;47.360;18.984;2022-10-31T00:25:37;100993.22;;;12.96;100.00
43818;BME280;29868;47.360;18.984;2022-10-31T00:28:04;100988.06;;;13.01;100.00
43818;BME280;29868;47.360;18.984;2022-10-31T00:30:30;100986.34;;;13.01;100.00
43818;BME280;29868;47.360;18.984;2022-10-31T00:32:55;100986.41;;;13.06;100.00
43818;BME280;29868;47.360;18.984;2022-10-31T00:35:20;100982.16;;;13.12;100.00
43818;BME280;29868;47.360;18.984;2022-10-31T00:37:46;100975.78;;;12.95;100.00
43818;BME280;29868;47.360;18.984;2022-10-31T00:40:11;100975.03;;;13.01;100.00
43818;BME280;29868;47.360;18.984;2022-10-31T00:42:37;100969.75;;;12.98;100.00
43818;BME280;29868;47.360;18.984;2022-10-31T00:45:03;100974.22;;;13.05;100.00
43818;BME280;29868;47.360;18.984;2022-10-31T00:47:29;100969.13;;;13.14;100.00
43818;BME280;29868;47.360;18.984;2022-10-31T00:49:54;100970.81;;;13.10;100.00
43818;BME280;29868;47.360;18.984;2022-10-31T00:52:19;100968.88;;;12.97;100.00
43818;BME280;29868;47.360;18.984;2022-10-31T00:54:45;100972.41;;;13.01;100.00
43818;BME280;29868;47.360;18.984;2022-10-31T00:57:10;100970.75;;;13.04;100.00
43818;BME280;29868;47.360;18.984;2022-10-31T00:59:35;100970.69;;;13.01;100.00
43818;BME280;29868;47.360;18.984;2022-10-31T01:02:01;100964.66;;;13.04;100.00
43818;BME280;29868;47.360;18.984;2022-10-31T01:04:26;100969.88;;;13.04;100.00
43818;BME280;29868;47.360;18.984;2022-10-31T01:06:52;100968.13;;;13.06;100.00
43818;BME280;29868;47.360;18.984;2022-10-31T01:09:17;100968.13;;;13.06;100.00
43818;BME280;29868;47.360;18.984;2022-10-31T01:11:42;100967.22;;;13.02;100.00
43818;BME280;29868;47.360;18.984;2022-10-31T01:14:08;100964.66;;;13.04;100.00
43818;BME280;29868;47.360;18.984;2022-10-31T01:16:33;100967.31;;;13.07;100.00
43818;BME280;29868;47.360;18.984;2022-10-31T01:18:59;100959.38;;;13.01;100.00
43818;BME280;29868;47.360;18.984;2022-10-31T01:21:26;100957.63;;;13.00;100.00
43818;BME280;29868;47.360;18.984;2022-10-31T01:23:55;100956.72;;;12.96;100.00
43818;BME280;29868;47.360;18.984;2022-10-31T01:26:29;100964.50;;;12.95;100.00
43818;BME280;29868;47.360;18.984;2022-10-31T01:28:58;100967.78;;;12.83;100.00
43818;BME280;29868;47.360;18.984;2022-10-31T01:31:27;100957.22;;;12.75;100.00
43818;BME280;29868;47.360;18.984;2022-10-31T01:33:53;100959.16;;;12.85;100.00
43818;BME280;29868;47.360;18.984;2022-10-31T01:36:24;100957.41;;;12.87;100.00
43818;BME280;29868;47.360;18.984;2022-10-31T01:38:52;100958.41;;;12.93;100.00
43818;BME280;29868;47.360;18.984;2022-10-31T01:41:20;100960.09;;;12.90;100.00
43818;BME280;29868;47.360;18.984;2022-10-31T01:43:57;100965.16;;;12.81;100.00
43818;BME280;29868;47.360;18.984;2022-10-31T01:48:49;100952.06;;;12.78;100.00
43818;BME280;29868;47.360;18.984;2022-10-31T01:51:16;100956.34;;;12.73;100.00
43818;BME280;29868;47.360;18.984;2022-10-31T01:53:43;100950.16;;;12.68;100.00
43818;BME280;29868;47.360;18.984;2022-10-31T01:56:10;100953.50;;;12.58;100.00
43818;BME280;29868;47.360;18.984;2022-10-31T01:58:35;100955.91;;;12.47;100.00
43818;BME280;29868;47.360;18.984;2022-10-31T02:01:01;100955.28;;;12.62;100.00
43818;BME280;29868;47.360;18.984;2022-10-31T02:03:27;100943.88;;;12.57;100.00
43818;BME280;29868;47.360;18.984;2022-10-31T02:05:55;100946.63;;;12.64;100.00
43818;BME280;29868;47.360;18.984;2022-10-31T02:08:26;100940.41;;;12.56;100.00
43818;BME280;29868;47.360;18.984;2022-10-31T02:10:53;100934.44;;;12.62;100.00
43818;BME280;29868;47.360;18.984;2022-10-31T02:13:19;100940.22;;;12.46;100.00
43818;BME280;29868;47.360;18.984;2022-10-31T02:15:52;100939.47;;;12.53;100.00
43818;BME280;29868;47.360;18.984;2022-10-31T02:18:18;100946.63;;;12.63;100.00
43818;BME280;29868;47.360;18.984;2022-10-31T02:26:15;100947.56;;;12.68;100.00
43818;BME280;29868;47.360;18.984;2022-10-31T02:36:58;100948.59;;;12.78;100.00
43818;BME280;29868;47.360;18.984;2022-10-31T02:44:58;100942.97;;;12.53;100.00
43818;BME280;29868;47.360;18.984;2022-10-31T02:47:28;100946.41;;;12.51;100.00
43818;BME280;29868;47.360;18.984;2022-10-31T02:52:33;100958.78;;;12.64;100.00
43818;BME280;29868;47.360;18.984;2022-10-31T02:55:12;100947.34;;;12.54;100.00
43818;BME280;29868;47.360;18.984;2022-10-31T02:57:59;100951.50;;;12.45;100.00
43818;BME280;29868;47.360;18.984;2022-10-31T03:00:29;100953.31;;;12.47;100.00
43818;BME280;29868;47.360;18.984;2022-10-31T03:03:04;100955.91;;;12.49;100.00
43818;BME280;29868;47.360;18.984;2022-10-31T03:10:42;100951.50;;;12.45;100.00
43818;BME280;29868;47.360;18.984;2022-10-31T03:13:33;100958.34;;;12.38;100.00
43818;BME280;29868;47.360;18.984;2022-10-31T03:16:10;100951.38;;;12.38;100.00
43818;BME280;29868;47.360;18.984;2022-10-31T03:18:43;100952.38;;;12.44;100.00
43818;BME280;29868;47.360;18.984;2022-10-31T03:21:14;100948.28;;;12.59;100.00
43818;BME280;29868;47.360;18.984;2022-10-31T03:23:41;100955.31;;;12.65;100.00
43818;BME280;29868;47.360;18.984;2022-10-31T03:26:09;100958.69;;;12.58;100.00
43818;BME280;29868;47.360;18.984;2022-10-31T03:28:55;100962.84;;;12.47;100.00
43818;BME280;29868;47.360;18.984;2022-10-31T03:31:26;100963.69;;;12.46;100.00
43818;BME280;29868;47.360;18.984;2022-10-31T03:33:55;100964.47;;;12.40;100.00
43818;BME280;29868;47.360;18.984;2022-10-31T03:36:23;100967.19;;;12.48;100.00
43818;BME280;29868;47.360;18.984;2022-10-31T03:38:49;100967.94;;;12.42;100.00
43818;BME280;29868;47.360;18.984;2022-10-31T03:41:22;100960.34;;;12.53;100.00
43818;BME280;29868;47.360;18.984;2022-10-31T03:43:56;100967.25;;;12.51;100.00
43818;BME280;29868;47.360;18.984;2022-10-31T03:46:24;100964.66;;;12.52;100.00
43818;BME280;29868;47.360;18.984;2022-10-31T03:48:50;100968.22;;;12.56;100.00
43818;BME280;29868;47.360;18.984;2022-10-31T03:53:54;100970.59;;;12.44;100.00
43818;BME280;29868;47.360;18.984;2022-10-31T03:56:33;100971.41;;;12.41;100.00
43818;BME280;29868;47.360;18.984;2022-10-31T03:59:13;100962.00;;;12.48;100.00
43818;BME280;29868;47.360;18.984;2022-10-31T04:01:52;100978.97;;;12.27;100.00
43818;BME280;29868;47.360;18.984;2022-10-31T04:04:19;100969.47;;;12.29;100.00
43818;BME280;29868;47.360;18.984;2022-10-31T04:06:46;100973.53;;;12.15;100.00
43818;BME280;29868;47.360;18.984;2022-10-31T04:09:13;100977.94;;;12.17;100.00
43818;BME280;29868;47.360;18.984;2022-10-31T04:11:47;100981.41;;;12.18;100.00
43818;BME280;29868;47.360;18.984;2022-10-31T04:14:14;100981.44;;;12.20;100.00
43818;BME280;29868;47.360;18.984;2022-10-31T04:16:42;100991.25;;;12.34;100.00
43818;BME280;29868;47.360;18.984;2022-10-31T04:19:08;100990.44;;;12.35;100.00
43818;BME280;29868;47.360;18.984;2022-10-31T04:21:33;100985.31;;;12.40;100.00
43818;BME280;29868;47.360;18.984;2022-10-31T04:23:59;100995.53;;;12.29;100.00
43818;BME280;29868;47.360;18.984;2022-10-31T04:26:24;100988.47;;;12.24;100.00
43818;BME280;29868;47.360;18.984;2022-10-31T04:28:50;100988.41;;;12.21;100.00
43818;BME280;29868;47.360;18.984;2022-10-31T04:31:15;100990.09;;;12.18;100.00
43818;BME280;29868;47.360;18.984;2022-10-31T04:33:41;100994.66;;;12.30;100.00
43818;BME280;29868;47.360;18.984;2022-10-31T04:36:06;100995.66;;;12.35;100.00
43818;BME280;29868;47.360;18.984;2022-10-31T04:38:32;100997.47;;;12.41;100.00
43818;BME280;29868;47.360;18.984;2022-10-31T04:40:57;100998.13;;;12.31;100.00
43818;BME280;29868;47.360;18.984;2022-10-31T04:43:22;101001.69;;;12.34;100.00
43818;BME280;29868;47.360;18.984;2022-10-31T04:45:48;101003.63;;;12.45;100.00
43818;BME280;29868;47.360;18.984;2022-10-31T04:48:13;101001.94;;;12.47;100.00
43818;BME280;29868;47.360;18.984;2022-10-31T04:50:39;101001.69;;;12.34;100.00
43818;BME280;29868;47.360;18.984;2022-10-31T04:53:04;100998.91;;;12.25;100.00
43818;BME280;29868;47.360;18.984;2022-10-31T04:55:30;100991.38;;;12.40;100.00
43818;BME280;29868;47.360;18.984;2022-10-31T04:57:55;100996.25;;;12.22;100.00
43818;BME280;29868;47.360;18.984;2022-10-31T05:00:22;101003.31;;;12.28;100.00
43818;BME280;29868;47.360;18.984;2022-10-31T05:02:48;100997.47;;;12.39;100.00
43818;BME280;29868;47.360;18.984;2022-10-31T05:05:18;101006.31;;;12.49;100.00
43818;BME280;29868;47.360;18.984;2022-10-31T05:07:45;101006.91;;;12.34;100.00
43818;BME280;29868;47.360;18.984;2022-10-31T05:10:17;101009.50;;;12.34;100.00
43818;BME280;29868;47.360;18.984;2022-10-31T05:12:55;101012.44;;;12.53;100.00
43818;BME280;29868;47.360;18.984;2022-10-31T05:15:22;101015.78;;;12.44;100.00
43818;BME280;29868;47.360;18.984;2022-10-31T05:17:48;101019.19;;;12.41;100.00
43818;BME280;29868;47.360;18.984;2022-10-31T05:20:15;101011.34;;;12.40;100.00
43818;BME280;29868;47.360;18.984;2022-10-31T05:22:46;101015.72;;;12.41;100.00
43818;BME280;29868;47.360;18.984;2022-10-31T05:25:12;101003.78;;;12.54;100.00
43818;BME280;29868;47.360;18.984;2022-10-31T05:27:39;101007.28;;;12.54;100.00
43818;BME280;29868;47.360;18.984;2022-10-31T05:30:06;101012.44;;;12.53;100.00
43818;BME280;29868;47.360;18.984;2022-10-31T05:32:39;101008.22;;;12.59;100.00
43818;BME280;29868;47.360;18.984;2022-10-31T05:35:07;101009.09;;;12.60;100.00
43818;BME280;29868;47.360;18.984;2022-10-31T05:37:35;101009.03;;;12.57;100.00
43818;BME280;29868;47.360;18.984;2022-10-31T05:40:06;101004.69;;;12.57;100.00
43818;BME280;29868;47.360;18.984;2022-10-31T05:42:31;101000.44;;;12.61;100.00
43818;BME280;29868;47.360;18.984;2022-10-31T05:44:57;101005.91;;;12.76;100.00
43818;BME280;29868;47.360;18.984;2022-10-31T05:47:22;101001.69;;;12.83;100.00
43818;BME280;29868;47.360;18.984;2022-10-31T05:49:48;101011.47;;;12.96;100.00
43818;BME280;29868;47.360;18.984;2022-10-31T05:52:13;101011.13;;;12.76;100.00
43818;BME280;29868;47.360;18.984;2022-10-31T05:54:38;101015.47;;;12.76;100.00
43818;BME280;29868;47.360;18.984;2022-10-31T05:57:04;101019.91;;;12.81;100.00
43818;BME280;29868;47.360;18.984;2022-10-31T05:59:29;101032.69;;;12.68;100.00
43818;BME280;29868;47.360;18.984;2022-10-31T06:01:54;101025.00;;;12.75;100.00
43818;BME280;29868;47.360;18.984;2022-10-31T06:04:20;101037.97;;;12.69;100.00
43818;BME280;29868;47.360;18.984;2022-10-31T06:06:45;101018.06;;;12.74;100.00
43818;BME280;29868;47.360;18.984;2022-10-31T06:09:10;101015.66;;;12.86;100.00
43818;BME280;29868;47.360;18.984;2022-10-31T06:11:36;101039.75;;;12.73;100.00
43818;BME280;29868;47.360;18.984;2022-10-31T06:14:01;101026.72;;;12.73;100.00
43818;BME280;29868;47.360;18.984;2022-10-31T06:16:27;101037.16;;;12.73;100.00
43818;BME280;29868;47.360;18.984;2022-10-31T06:18:52;101038.03;;;12.74;100.00
43818;BME280;29868;47.360;18.984;2022-10-31T06:21:18;101013.97;;;12.88;100.00
43818;BME280;29868;47.360;18.984;2022-10-31T06:23:43;101031.34;;;12.91;100.00
43818;BME280;29868;47.360;18.984;2022-10-31T06:26:08;101025.28;;;12.90;100.00
43818;BME280;29868;47.360;18.984;2022-10-31T06:28:34;101027.00;;;12.91;100.00
43818;BME280;29868;47.360;18.984;2022-10-31T06:30:59;101032.22;;;12.88;100.00
43818;BME280;29868;47.360;18.984;2022-10-31T06:33:24;101023.31;;;12.77;100.00
43818;BME280;29868;47.360;18.984;2022-10-31T06:35:50;101023.34;;;12.79;100.00
43818;BME280;29868;47.360;18.984;2022-10-31T06:38:15;101039.00;;;12.80;100.00
43818;BME280;29868;47.360;18.984;2022-10-31T06:40:40;101029.56;;;12.87;100.00
43818;BME280;29868;47.360;18.984;2022-10-31T06:43:06;101028.78;;;12.93;100.00
43818;BME280;29868;47.360;18.984;2022-10-31T06:45:31;101036.38;;;12.80;100.00
43818;BME280;29868;47.360;18.984;2022-10-31T06:47:57;101031.34;;;12.88;100.00
43818;BME280;29868;47.360;18.984;2022-10-31T06:50:23;101029.41;;;12.78;100.00
43818;BME280;29868;47.360;18.984;2022-10-31T06:52:55;101030.34;;;12.81;100.00
43818;BME280;29868;47.360;18.984;2022-10-31T06:55:22;101045.97;;;12.81;100.00
43818;BME280;29868;47.360;18.984;2022-10-31T06:57:54;101033.81;;;12.82;100.00
43818;BME280;29868;47.360;18.984;2022-10-31T07:00:20;101041.75;;;12.88;100.00
43818;BME280;29868;47.360;18.984;2022-10-31T07:02:56;101051.13;;;12.78;100.00
43818;BME280;29868;47.360;18.984;2022-10-31T07:05:21;101058.16;;;12.82;100.00
43818;BME280;29868;47.360;18.984;2022-10-31T07:07:47;101056.50;;;12.87;100.00
43818;BME280;29868;47.360;18.984;2022-10-31T07:10:12;101053.00;;;12.85;100.00
43818;BME280;29868;47.360;18.984;2022-10-31T07:12:38;101057.41;;;12.88;100.00
43818;BME280;29868;47.360;18.984;2022-10-31T07:15:04;101055.56;;;12.82;100.00
43818;BME280;29868;47.360;18.984;2022-10-31T07:17:29;101058.31;;;12.91;100.00
43818;BME280;29868;47.360;18.984;2022-10-31T07:19:55;101063.91;;;12.64;100.00
43818;BME280;29868;47.360;18.984;2022-10-31T07:22:21;101063.16;;;12.70;100.00
43818;BME280;29868;47.360;18.984;2022-10-31T07:24:46;101063.22;;;12.73;100.00
43818;BME280;29868;47.360;18.984;2022-10-31T07:27:11;101067.66;;;12.79;100.00
43818;BME280;29868;47.360;18.984;2022-10-31T07:29:37;101072.88;;;12.79;100.00
43818;BME280;29868;47.360;18.984;2022-10-31T07:32:02;101078.06;;;12.77;100.00
43818;BME280;29868;47.360;18.984;2022-10-31T07:34:27;101076.28;;;12.76;100.00
43818;BME280;29868;47.360;18.984;2022-10-31T07:36:53;101078.25;;;12.88;100.00
43818;BME280;29868;47.360;18.984;2022-10-31T07:39:18;101073.88;;;12.87;100.00
43818;BME280;29868;47.360;18.984;2022-10-31T07:41:43;101073.94;;;12.91;100.00
43818;BME280;29868;47.360;18.984;2022-10-31T07:44:09;101070.44;;;12.88;100.00
43818;BME280;29868;47.360;18.984;2022-10-31T07:46:34;101070.41;;;12.86;100.00
43818;BME280;29868;47.360;18.984;2022-10-31T07:49:00;101069.53;;;12.86;100.00
43818;BME280;29868;47.360;18.984;2022-10-31T07:51:25;101072.16;;;12.87;100.00
43818;BME280;29868;47.360;18.984;2022-10-31T07:53:51;101069.03;;;13.07;100.00
43818;BME280;29868;47.360;18.984;2022-10-31T07:56:17;101072.75;;;13.23;100.00
43818;BME280;29868;47.360;18.984;2022-10-31T07:58:42;101071.13;;;13.29;100.00
43818;BME280;29868;47.360;18.984;2022-10-31T08:01:07;101069.34;;;13.25;100.00
43818;BME280;29868;47.360;18.984;2022-10-31T08:03:33;101078.31;;;13.43;100.00
43818;BME280;29868;47.360;18.984;2022-10-31T08:05:58;101080.22;;;13.53;100.00
43818;BME280;29868;47.360;18.984;2022-10-31T08:08:23;101075.28;;;13.18;100.00
43818;BME280;29868;47.360;18.984;2022-10-31T08:10:49;101069.16;;;13.14;100.00
43818;BME280;29868;47.360;18.984;2022-10-31T08:13:14;101071.25;;;13.35;100.00
43818;BME280;29868;47.360;18.984;2022-10-31T08:15:40;101078.38;;;13.47;100.00
43818;BME280;29868;47.360;18.984;2022-10-31T08:18:12;101081.16;;;13.59;100.00
43818;BME280;29868;47.360;18.984;2022-10-31T08:20:37;101077.03;;;13.72;100.00
43818;BME280;29868;47.360;18.984;2022-10-31T08:23:04;101085.72;;;13.73;100.00
43818;BME280;29868;47.360;18.984;2022-10-31T08:25:32;101081.44;;;13.78;100.00
43818;BME280;29868;47.360;18.984;2022-10-31T08:27:58;101076.16;;;13.72;100.00
43818;BME280;29868;47.360;18.984;2022-10-31T08:30:27;101080.63;;;13.80;100.00
43818;BME280;29868;47.360;18.984;2022-10-31T08:33:06;101088.41;;;13.77;100.00
43818;BME280;29868;47.360;18.984;2022-10-31T08:35:33;101077.91;;;13.73;100.00
43818;BME280;29868;47.360;18.984;2022-10-31T08:37:59;101083.66;;;13.52;100.00
43818;BME280;29868;47.360;18.984;2022-10-31T08:40:25;101084.34;;;13.38;100.00
43818;BME280;29868;47.360;18.984;2022-10-31T08:45:24;101080.44;;;13.68;100.00
43818;BME280;29868;47.360;18.984;2022-10-31T08:47:50;101078.72;;;13.70;100.00
43818;BME280;29868;47.360;18.984;2022-10-31T08:50:15;101085.28;;;13.44;100.00
43818;BME280;29868;47.360;18.984;2022-10-31T08:52:41;101078.75;;;13.72;100.00
43818;BME280;29868;47.360;18.984;2022-10-31T08:55:06;101091.72;;;13.66;100.00
43818;BME280;29868;47.360;18.984;2022-10-31T08:57:32;101084.09;;;13.82;100.00
43818;BME280;29868;47.360;18.984;2022-10-31T08:59:57;101084.91;;;13.77;100.00
43818;BME280;29868;47.360;18.984;2022-10-31T09:02:22;101085.94;;;13.86;100.00
43818;BME280;29868;47.360;18.984;2022-10-31T09:04:48;101088.41;;;13.76;100.00
43818;BME280;29868;47.360;18.984;2022-10-31T09:07:13;101091.81;;;13.73;100.00
43818;BME280;29868;47.360;18.984;2022-10-31T09:09:38;101092.84;;;13.84;100.00
43818;BME280;29868;47.360;18.984;2022-10-31T09:12:04;101092.94;;;13.91;100.00
43818;BME280;29868;47.360;18.984;2022-10-31T09:14:29;101096.34;;;13.83;100.00
43818;BME280;29868;47.360;18.984;2022-10-31T09:16:55;101093.88;;;13.96;100.00
43818;BME280;29868;47.360;18.984;2022-10-31T09:19:20;101096.28;;;13.80;100.00
43818;BME280;29868;47.360;18.984;2022-10-31T09:21:45;101092.03;;;13.88;100.00
43818;BME280;29868;47.360;18.984;2022-10-31T09:24:11;101095.47;;;13.84;100.00
43818;BME280;29868;47.360;18.984;2022-10-31T09:26:36;101099.97;;;13.95;100.00
43818;BME280;29868;47.360;18.984;2022-10-31T09:29:01;101102.72;;;14.05;100.00
43818;BME280;29868;47.360;18.984;2022-10-31T09:31:27;101098.06;;;13.83;100.00
43818;BME280;29868;47.360;18.984;2022-10-31T09:33:53;101101.34;;;13.68;100.00
43818;BME280;29868;47.360;18.984;2022-10-31T09:36:19;101101.22;;;13.62;100.00
43818;BME280;29868;47.360;18.984;2022-10-31T09:38:44;101104.81;;;13.70;100.00
43818;BME280;29868;47.360;18.984;2022-10-31T09:41:29;101103.03;;;13.66;100.00
43818;BME280;29868;47.360;18.984;2022-10-31T09:47:16;101107.44;;;13.70;100.00
43818;BME280;29868;47.360;18.984;2022-10-31T09:50:21;101109.06;;;13.60;100.00
43818;BME280;29868;47.360;18.984;2022-10-31T09:53:09;101111.78;;;13.70;100.00
43818;BME280;29868;47.360;18.984;2022-10-31T09:55:40;101108.47;;;13.80;100.00
43818;BME280;29868;47.360;18.984;2022-10-31T09:58:15;101108.97;;;13.56;100.00
43818;BME280;29868;47.360;18.984;2022-10-31T10:00:43;101096.69;;;13.49;100.00
43818;BME280;29868;47.360;18.984;2022-10-31T10:06:28;101093.34;;;13.57;100.00
43818;BME280;29868;47.360;18.984;2022-10-31T10:08:55;101103.94;;;13.68;100.00
43818;BME280;29868;47.360;18.984;2022-10-31T10:11:48;101106.56;;;13.68;100.00
43818;BME280;29868;47.360;18.984;2022-10-31T10:22:27;101094.09;;;13.52;100.00
43818;BME280;29868;47.360;18.984;2022-10-31T10:32:44;101084.22;;;13.31;100.00
43818;BME280;29868;47.360;18.984;2022-10-31T10:37:43;101078.66;;;13.64;100.00
43818;BME280;29868;47.360;18.984;2022-10-31T10:40:19;101078.72;;;13.70;100.00
43818;BME280;29868;47.360;18.984;2022-10-31T10:42:59;101080.66;;;13.83;100.00
43818;BME280;29868;47.360;18.984;2022-10-31T10:51:30;101076.81;;;13.57;100.00
43818;BME280;29868;47.360;18.984;2022-10-31T10:57:02;101074.31;;;13.66;100.00
43818;BME280;29868;47.360;18.984;2022-10-31T10:59:31;101072.69;;;13.73;100.00
43818;BME280;29868;47.360;18.984;2022-10-31T11:01:58;101070.94;;;13.72;100.00
43818;BME280;29868;47.360;18.984;2022-10-31T11:07:36;101071.06;;;13.82;100.00
43818;BME280;29868;47.360;18.984;2022-10-31T11:09:50;101070.28;;;13.90;100.00
43818;BME280;29868;47.360;18.984;2022-10-31T11:14:50;101070.66;;;14.17;100.00
43818;BME280;29868;47.360;18.984;2022-10-31T11:17:37;101074.28;;;14.28;100.00
43818;BME280;29868;47.360;18.984;2022-10-31T11:22:40;101069.69;;;14.12;100.00
43818;BME280;29868;47.360;18.984;2022-10-31T11:27:58;101062.72;;;14.09;100.00
43818;BME280;29868;47.360;18.984;2022-10-31T11:30:23;101061.63;;;13.91;100.00
43818;BME280;29868;47.360;18.984;2022-10-31T11:32:50;101060.56;;;13.78;100.00
43818;BME280;29868;47.360;18.984;2022-10-31T11:35:20;101062.19;;;13.71;100.00
43818;BME280;29868;47.360;18.984;2022-10-31T11:37:48;101056.88;;;13.63;100.00
43818;BME280;29868;47.360;18.984;2022-10-31T11:40:20;101057.94;;;13.76;100.00
43818;BME280;29868;47.360;18.984;2022-10-31T11:42:46;101057.38;;;14.00;100.00
43818;BME280;29868;47.360;18.984;2022-10-31T11:45:29;101063.41;;;13.95;100.00
43818;BME280;29868;47.360;18.984;2022-10-31T11:47:57;101060.72;;;13.90;100.00
43818;BME280;29868;47.360;18.984;2022-10-31T11:50:35;101059.06;;;13.95;100.00
43818;BME280;29868;47.360;18.984;2022-10-31T11:53:02;101050.97;;;13.78;100.00
43818;BME280;29868;47.360;18.984;2022-10-31T11:55:34;101056.25;;;13.81;100.00
43818;BME280;29868;47.360;18.984;2022-10-31T11:58:00;101055.53;;;13.92;100.00
43818;BME280;29868;47.360;18.984;2022-10-31T12:00:33;101057.97;;;13.79;100.00
43818;BME280;29868;47.360;18.984;2022-10-31T12:03:10;101053.47;;;13.69;100.00
43818;BME280;29868;47.360;18.984;2022-10-31T12:05:38;101042.38;;;13.85;100.00
43818;BME280;29868;47.360;18.984;2022-10-31T12:08:07;101050.94;;;13.74;100.00
43818;BME280;29868;47.360;18.984;2022-10-31T12:16:12;101053.59;;;13.77;100.00
43818;BME280;29868;47.360;18.984;2022-10-31T12:18:58;101050.81;;;13.66;100.00
43818;BME280;29868;47.360;18.984;2022-10-31T12:27:03;101050.03;;;13.72;100.00
43818;BME280;29868;47.360;18.984;2022-10-31T12:30:46;101052.91;;;13.92;100.00
43818;BME280;29868;47.360;18.984;2022-10-31T12:41:31;101043.78;;;13.60;100.00
43818;BME280;29868;47.360;18.984;2022-10-31T12:44:06;101048.91;;;13.56;100.00
43818;BME280;29868;47.360;18.984;2022-10-31T12:46:54;101051.47;;;13.51;100.00
43818;BME280;29868;47.360;18.984;2022-10-31T12:55:21;101037.44;;;13.45;100.00
43818;BME280;29868;47.360;18.984;2022-10-31T12:57:54;101033.78;;;13.32;100.00
43818;BME280;29868;47.360;18.984;2022-10-31T13:00:24;101046.13;;;13.42;100.00
43818;BME280;29868;47.360;18.984;2022-10-31T13:02:56;101042.56;;;13.37;100.00
43818;BME280;29868;47.360;18.984;2022-10-31T13:08:00;101040.75;;;13.31;100.00
43818;BME280;29868;47.360;18.984;2022-10-31T13:10:31;101034.72;;;13.35;100.00
43818;BME280;29868;47.360;18.984;2022-10-31T13:13:05;101032.22;;;13.43;100.00
43818;BME280;29868;47.360;18.984;2022-10-31T13:15:40;101040.88;;;13.41;100.00
43818;BME280;29868;47.360;18.984;2022-10-31T13:18:14;101034.94;;;13.51;100.00
43818;BME280;29868;47.360;18.984;2022-10-31T13:20:45;101038.53;;;13.59;100.00
43818;BME280;29868;47.360;18.984;2022-10-31T13:23:26;101031.41;;;13.47;100.00
43818;BME280;29868;47.360;18.984;2022-10-31T13:25:54;101028.72;;;13.41;100.00
43818;BME280;29868;47.360;18.984;2022-10-31T13:30:57;101031.47;;;13.52;100.00
43818;BME280;29868;47.360;18.984;2022-10-31T13:33:29;101025.19;;;13.39;100.00
43818;BME280;29868;47.360;18.984;2022-10-31T13:38:54;101034.78;;;13.38;100.00
43818;BME280;29868;47.360;18.984;2022-10-31T13:44:15;101039.88;;;13.31;100.00
43818;BME280;29868;47.360;18.984;2022-10-31T13:46:43;101032.06;;;13.32;100.00
43818;BME280;29868;47.360;18.984;2022-10-31T13:57:22;101024.19;;;13.29;100.00
43818;BME280;29868;47.360;18.984;2022-10-31T13:59:56;101025.72;;;13.18;100.00
43818;BME280;29868;47.360;18.984;2022-10-31T14:02:34;101025.72;;;13.18;100.00
43818;BME280;29868;47.360;18.984;2022-10-31T14:05:04;101022.28;;;13.19;100.00
43818;BME280;29868;47.360;18.984;2022-10-31T14:07:31;101020.50;;;13.18;100.00
43818;BME280;29868;47.360;18.984;2022-10-31T14:10:00;101023.03;;;13.12;100.00
43818;BME280;29868;47.360;18.984;2022-10-31T14:12:40;101018.88;;;13.23;100.00
43818;BME280;29868;47.360;18.984;2022-10-31T14:15:24;101020.34;;;13.09;100.00
43818;BME280;29868;47.360;18.984;2022-10-31T14:18:05;101021.28;;;13.14;100.00
43818;BME280;29868;47.360;18.984;2022-10-31T14:20:44;101020.63;;;13.24;100.00
43818;BME280;29868;47.360;18.984;2022-10-31T14:23:33;101019.75;;;13.25;100.00
43818;BME280;29868;47.360;18.984;2022-10-31T14:28:44;101017.25;;;12.80;100.00
43818;BME280;29868;47.360;18.984;2022-10-31T14:31:38;101015.69;;;12.88;100.00
43818;BME280;29868;47.360;18.984;2022-10-31T14:34:21;101020.13;;;12.95;100.00
43818;BME280;29868;47.360;18.984;2022-10-31T14:39:58;101014.75;;;12.84;100.00
43818;BME280;29868;47.360;18.984;2022-10-31T14:50:58;101019.13;;;12.87;100.00
43818;BME280;29868;47.360;18.984;2022-10-31T14:53:29;101019.00;;;12.79;100.00
43818;BME280;29868;47.360;18.984;2022-10-31T14:55:56;101016.50;;;12.85;100.00
43818;BME280;29868;47.360;18.984;2022-10-31T14:58:40;101016.91;;;12.60;100.00